Aérodrome :
LOGIN :

S'inscrire | Disclaimer

   EN    FR    IT 

 










Légende :    VFR   VFR Marginal   IFR   IFR Intensif   IFR Très Intensif
Visi : 
Plafond : 
>= 8 km
>= 3000ft
5 à 8 km
1000 à 3000 ft
1500m à 5 km
500 à 1000 ft
800 à 1500m
200 à 500 ft
< 800m
< 200 ft
Symboles :   Orages  Brouillard  Fortes neiges  Fortes précipitations  Vent > 20 kt
SIGMETs :   Divers  Orages  Givrage  Turbulence  Onde Orograph.  Cendres Volcan.







- Altitude de l'aérodrome : 157 ft
- Code IATA : SXF


EDDB - Berlin Schönefeld

DERNIER METAR :
  • 160450Z 25005KT 8000 SCT018 BKN040 01/01 Q1002 NOSIG

METARs EXPIRÉS :
  • 160420Z 25004KT 9000 SCT020 BKN037 01/01 Q1002 NOSIG
  • 160350Z 25004KT 9000 BKN038 01/00 Q1002 NOSIG
  • 160320Z 26004KT 9000 BKN039 01/01 Q1002 NOSIG
  • 160250Z 24003KT 9000 BKN037 01/01 Q1002 NOSIG
  • 160220Z 27002KT 9000 BKN036 01/01 Q1001 NOSIG

TAF TAF EDDB
Valide du 16 à 00h jusqu'au 17 à 00h UTC


152300Z 1600/1624 22004KT 6000 BKN030
TEMPO 1600/1607 4000 BR
BECMG 1607/1609 25009KT
BECMG 1609/1612 BKN013
TEMPO 1616/1622 3500 -SHSNRA SCT015CB
BECMG 1617/1619 BKN009
Pas de NOTAMs connus pour ce terrain.



MET'MAP, la Météo Aéronautique d'un coup d'oeil ! - Copyright ORBIFLY Décembre 2007 - Disclaimer

ORBIFLY MET'MAP TEAM :

Programmation & Développement : Alexandra Zaïnal
Conception & Développement : Baudouin d'Aumeries
Co-Programmation & Développement : Marc-Olivier Méhu
Soutien technique & logistique : Manuel Goepfert

Contact : metmap@orbifly.com




SOURCES & CREDITS :

   NOAA